Time;durP1;ratioP1;P1;durP2;ratioP2;P2;SDS_P1;SDS_P2;PMS_P1;PMS_P2;Temp;Humidity;BMP_temperature;BMP_pressure;BME280_temperature;BME280_humidity;BME280_pressure;Samples;Min_cycle;Max_cycle;Signal;HPM_P1;HPM_P2
2021/09/17 00:00:52;;;;;;;13.45;8.77;;;11.80;99.90;;;;;;5036431;28;20068;-70
2021/09/17 00:03:21;;;;;;;14.75;9.75;;;11.90;99.90;;;;;;5027513;28;20047;-69
2021/09/17 00:05:48;;;;;;;12.95;8.95;;;11.80;99.90;;;;;;5022156;28;20459;-70
2021/09/17 00:08:16;;;;;;;15.88;9.30;;;11.90;99.90;;;;;;5008644;28;20185;-69
2021/09/17 00:10:43;;;;;;;11.32;7.97;;;11.80;99.90;;;;;;5024322;28;20353;-70
2021/09/17 00:13:11;;;;;;;13.38;8.80;;;11.80;99.90;;;;;;5036600;28;20046;-70
2021/09/17 00:15:38;;;;;;;11.73;8.48;;;11.80;99.90;;;;;;5039882;28;20223;-70
2021/09/17 00:18:05;;;;;;;12.23;8.27;;;11.80;99.90;;;;;;5051363;28;20120;-69
2021/09/17 00:20:33;;;;;;;12.30;8.15;;;11.80;99.90;;;;;;5045623;28;20076;-70
2021/09/17 00:23:00;;;;;;;12.02;8.57;;;11.80;99.90;;;;;;5044662;28;20072;-69
2021/09/17 00:25:28;;;;;;;15.15;9.25;;;11.80;99.90;;;;;;5044813;28;20036;-69
2021/09/17 00:27:55;;;;;;;13.55;8.82;;;11.80;99.90;;;;;;5024310;28;20123;-70
2021/09/17 00:30:27;;;;;;;14.70;8.52;;;11.80;99.90;;;;;;5028407;28;20076;-70
2021/09/17 00:32:55;;;;;;;;;;;11.80;99.90;;;;;;5048620;28;20055;-70
2021/09/17 00:35:22;;;;;;;14.50;8.70;;;11.70;99.90;;;;;;5049975;28;19925;-70
2021/09/17 00:37:50;;;;;;;13.07;9.05;;;11.70;99.90;;;;;;5044569;28;20125;-70
2021/09/17 00:40:18;;;;;;;12.02;8.40;;;11.70;99.90;;;;;;5051118;28;20075;-70
2021/09/17 00:42:45;;;;;;;11.82;8.32;;;11.70;99.90;;;;;;5037899;28;20044;-70
2021/09/17 00:45:13;;;;;;;13.88;8.68;;;11.70;99.90;;;;;;5048680;28;20069;-70
2021/09/17 00:47:42;;;;;;;13.10;8.75;;;11.70;99.90;;;;;;5047771;28;20072;-70
2021/09/17 00:50:13;;;;;;;12.75;8.55;;;11.70;99.90;;;;;;5048833;28;20131;-69
2021/09/17 00:52:41;;;;;;;12.10;8.07;;;11.70;99.90;;;;;;5029491;28;20111;-70
2021/09/17 00:55:10;;;;;;;14.40;9.65;;;11.70;99.90;;;;;;5026336;28;20057;-69
2021/09/17 00:57:37;;;;;;;12.82;8.60;;;11.70;99.90;;;;;;5050425;28;20045;-69
2021/09/17 01:00:10;;;;;;;14.38;9.48;;;11.70;99.90;;;;;;5045212;28;20366;-69
2021/09/17 01:02:38;;;;;;;14.68;8.77;;;11.60;99.90;;;;;;5045516;28;20091;-69
2021/09/17 01:05:08;;;;;;;13.35;8.63;;;11.70;99.90;;;;;;5028679;28;20104;-69
2021/09/17 01:07:36;;;;;;;12.13;8.13;;;11.70;99.90;;;;;;5041967;28;20048;-69
2021/09/17 01:10:06;;;;;;;14.13;9.50;;;11.70;99.90;;;;;;5041673;28;20797;-70
2021/09/17 01:12:34;;;;;;;13.60;8.57;;;11.70;99.90;;;;;;5040678;28;20049;-70
2021/09/17 01:15:04;;;;;;;14.25;9.45;;;11.70;99.90;;;;;;5037999;28;21207;-70
2021/09/17 01:17:38;;;;;;;13.93;8.80;;;11.60;99.90;;;;;;5032674;28;20527;-70
2021/09/17 01:20:08;;;;;;;11.98;8.63;;;11.60;99.90;;;;;;5030700;28;20045;-70
2021/09/17 01:22:36;;;;;;;14.65;9.38;;;11.60;99.90;;;;;;5029876;28;20128;-70
2021/09/17 01:25:06;;;;;;;16.08;10.18;;;11.60;99.90;;;;;;5048400;28;20392;-70
2021/09/17 01:27:34;;;;;;;18.70;10.38;;;11.60;99.90;;;;;;5049733;28;20045;-70
2021/09/17 01:30:02;;;;;;;14.98;9.68;;;11.60;99.90;;;;;;5048760;28;20588;-70
2021/09/17 01:32:30;;;;;;;11.80;8.50;;;11.60;99.90;;;;;;5035928;28;20045;-70
2021/09/17 01:34:57;;;;;;;15.02;8.95;;;11.70;99.90;;;;;;5039893;28;20045;-70
2021/09/17 01:37:25;;;;;;;15.85;10.13;;;11.80;99.90;;;;;;5039792;28;20049;-70
2021/09/17 01:39:52;;;;;;;14.15;8.52;;;11.80;99.90;;;;;;5033125;28;20051;-70
2021/09/17 01:42:20;;;;;;;13.75;9.48;;;12.00;99.90;;;;;;5040647;28;20041;-69
2021/09/17 01:44:47;;;;;;;13.60;8.93;;;12.10;99.90;;;;;;5015238;28;20044;-69
2021/09/17 01:47:15;;;;;;;12.20;8.00;;;12.10;99.90;;;;;;5043872;28;20080;-69
2021/09/17 01:49:42;;;;;;;11.88;7.97;;;12.20;99.90;;;;;;5042559;28;20046;-70
2021/09/17 01:52:09;;;;;;;13.27;8.88;;;12.30;99.90;;;;;;5023411;28;20182;-70
2021/09/17 01:54:37;;;;;;;12.40;8.13;;;12.40;99.90;;;;;;5026863;28;20049;-69
2021/09/17 01:57:05;;;;;;;12.52;8.05;;;12.40;99.90;;;;;;5036956;28;20037;-69
2021/09/17 01:59:33;;;;;;;13.40;7.32;;;12.50;99.90;;;;;;5044596;28;20041;-70
2021/09/17 02:02:00;;;;;;;10.07;7.72;;;12.50;99.90;;;;;;5043884;28;20124;-69
2021/09/17 02:04:28;;;;;;;14.02;8.10;;;12.60;99.90;;;;;;5029447;28;20110;-70
2021/09/17 02:06:55;;;;;;;11.50;7.65;;;12.70;99.90;;;;;;5029926;28;20136;-70
2021/09/17 02:09:22;;;;;;;10.23;7.47;;;12.70;99.90;;;;;;5031764;28;20043;-70
2021/09/17 02:11:49;;;;;;;10.63;7.13;;;12.70;99.90;;;;;;5035654;28;20036;-70
2021/09/17 02:14:17;;;;;;;10.93;7.20;;;12.80;99.90;;;;;;5032616;28;20352;-69
2021/09/17 02:16:44;;;;;;;10.40;6.80;;;12.80;99.90;;;;;;5030358;28;20408;-69
2021/09/17 02:19:11;;;;;;;13.82;7.78;;;12.80;99.90;;;;;;5030788;28;20045;-69
2021/09/17 02:21:39;;;;;;;10.40;6.55;;;12.90;99.90;;;;;;5035049;28;20056;-70
2021/09/17 02:24:07;;;;;;;12.63;7.93;;;12.90;99.90;;;;;;5036381;28;20459;-70
2021/09/17 02:26:34;;;;;;;8.45;6.60;;;12.90;99.90;;;;;;5039049;28;20068;-70
2021/09/17 02:29:02;;;;;;;10.65;7.55;;;13.00;99.90;;;;;;5038399;28;20045;-70
2021/09/17 02:31:29;;;;;;;12.82;7.03;;;13.00;99.90;;;;;;5020917;28;20051;-70
2021/09/17 02:33:57;;;;;;;9.75;7.47;;;13.10;99.90;;;;;;5028706;28;20399;-70
2021/09/17 02:36:24;;;;;;;12.93;7.32;;;13.10;99.90;;;;;;5033173;28;20144;-70
2021/09/17 02:38:52;;;;;;;10.52;7.47;;;13.10;99.90;;;;;;5032025;28;20442;-70
2021/09/17 02:41:19;;;;;;;10.82;7.55;;;13.00;99.90;;;;;;5036350;28;20080;-70
2021/09/17 02:43:46;;;;;;;10.18;7.10;;;13.00;99.90;;;;;;5045008;28;20095;-70
2021/09/17 02:46:14;;;;;;;15.98;8.02;;;13.00;99.90;;;;;;5034348;28;20479;-70
2021/09/17 02:48:44;;;;;;;12.07;7.80;;;13.10;99.90;;;;;;5008254;28;20504;-70
2021/09/17 02:51:12;;;;;;;13.57;7.70;;;13.10;99.90;;;;;;5017686;28;20137;-70
2021/09/17 02:53:39;;;;;;;11.75;7.07;;;13.10;99.90;;;;;;5029443;28;20053;-70
2021/09/17 02:56:07;;;;;;;12.43;7.75;;;13.10;99.90;;;;;;5026274;28;20045;-70
2021/09/17 02:58:36;;;;;;;13.20;8.02;;;13.10;99.90;;;;;;5022927;28;20206;-70
2021/09/17 03:01:04;;;;;;;14.00;8.55;;;13.20;99.90;;;;;;5042449;28;20573;-70
2021/09/17 03:03:31;;;;;;;13.48;8.35;;;13.20;99.90;;;;;;5038112;28;20128;-70
2021/09/17 03:05:58;;;;;;;13.60;9.50;;;13.20;99.90;;;;;;5025690;28;20037;-71
2021/09/17 03:08:26;;;;;;;11.52;8.30;;;13.20;99.90;;;;;;5036566;28;20507;-70
2021/09/17 03:10:57;;;;;;;18.30;8.85;;;13.10;99.90;;;;;;5038793;28;20053;-70
2021/09/17 03:13:26;;;;;;;11.70;8.55;;;13.10;99.90;;;;;;5037005;28;20047;-70
2021/09/17 03:15:54;;;;;;;14.10;9.05;;;13.10;99.90;;;;;;5035686;28;20124;-70
2021/09/17 03:18:21;;;;;;;12.25;8.80;;;13.10;99.90;;;;;;5032546;28;20467;-70
2021/09/17 03:20:50;;;;;;;15.60;10.35;;;13.00;99.90;;;;;;5049232;28;20040;-70
2021/09/17 03:23:19;;;;;;;12.07;8.50;;;13.00;99.90;;;;;;5051945;28;20127;-70
2021/09/17 03:25:47;;;;;;;12.68;8.70;;;12.90;99.90;;;;;;5035240;28;20043;-70
2021/09/17 03:28:14;;;;;;;13.95;9.13;;;12.90;99.90;;;;;;5040976;28;20053;-70
2021/09/17 03:30:41;;;;;;;15.30;9.77;;;12.80;99.90;;;;;;5039383;28;20052;-70
2021/09/17 03:33:11;;;;;;;15.27;9.82;;;12.80;99.90;;;;;;5038795;28;20507;-70
2021/09/17 03:35:39;;;;;;;14.57;9.63;;;12.70;99.90;;;;;;5032422;28;20579;-70
2021/09/17 03:38:06;;;;;;;17.30;10.65;;;12.70;99.90;;;;;;5032753;28;20136;-70
2021/09/17 03:40:35;;;;;;;15.65;9.63;;;12.70;99.90;;;;;;5035930;28;20384;-70
2021/09/17 03:43:03;;;;;;;14.00;9.38;;;12.70;99.90;;;;;;5054124;28;20037;-70
2021/09/17 03:45:31;;;;;;;13.85;9.73;;;12.70;99.90;;;;;;5036253;28;20068;-70
2021/09/17 03:48:05;;;;;;;12.70;9.60;;;12.60;99.90;;;;;;5020598;28;20145;-70
2021/09/17 03:50:32;;;;;;;14.80;9.23;;;12.60;99.90;;;;;;5022929;28;20127;-70
2021/09/17 03:53:01;;;;;;;15.50;10.68;;;12.60;99.90;;;;;;5030352;28;20496;-70
2021/09/17 03:55:28;;;;;;;19.17;12.88;;;12.60;99.90;;;;;;5029250;28;20064;-70
2021/09/17 03:57:55;;;;;;;28.42;18.58;;;12.60;99.90;;;;;;5029909;28;20065;-70
2021/09/17 04:00:23;;;;;;;20.17;14.23;;;12.60;99.90;;;;;;5041724;28;20046;-70
2021/09/17 04:02:50;;;;;;;16.45;10.73;;;12.60;99.90;;;;;;5033922;28;20039;-70
2021/09/17 04:05:18;;;;;;;14.05;9.95;;;12.50;99.90;;;;;;5031496;28;20053;-70
2021/09/17 04:07:45;;;;;;;13.40;9.50;;;12.40;99.90;;;;;;5030308;28;20053;-70
2021/09/17 04:10:14;;;;;;;15.35;10.50;;;12.30;99.90;;;;;;5033890;28;20045;-70
2021/09/17 04:12:42;;;;;;;15.70;10.75;;;12.30;99.90;;;;;;5025226;28;20243;-70
2021/09/17 04:15:10;;;;;;;21.08;13.50;;;12.20;99.90;;;;;;5018734;28;20124;-70
2021/09/17 04:17:38;;;;;;;18.08;12.85;;;12.20;99.90;;;;;;5035841;28;20046;-71
2021/09/17 04:20:06;;;;;;;19.50;13.05;;;12.10;99.90;;;;;;5026164;28;20038;-70
2021/09/17 04:22:34;;;;;;;17.30;11.45;;;12.10;99.90;;;;;;5026753;28;20069;-70
2021/09/17 04:25:02;;;;;;;15.63;10.18;;;12.10;99.90;;;;;;5020198;28;20041;-70
2021/09/17 04:27:30;;;;;;;19.15;13.00;;;12.10;99.90;;;;;;5034663;28;20045;-70
2021/09/17 04:29:57;;;;;;;21.23;14.15;;;12.10;99.90;;;;;;5036348;28;20048;-70
2021/09/17 04:32:25;;;;;;;13.98;10.10;;;12.20;99.90;;;;;;5021030;28;20044;-70
2021/09/17 04:34:52;;;;;;;15.07;10.02;;;12.10;99.90;;;;;;5042160;28;20076;-70
2021/09/17 04:37:19;;;;;;;13.77;9.88;;;12.10;99.90;;;;;;5026031;28;20076;-70
2021/09/17 04:39:46;;;;;;;16.70;10.02;;;12.10;99.90;;;;;;5037431;28;20049;-70
2021/09/17 04:42:14;;;;;;;14.27;10.13;;;12.10;99.90;;;;;;5037116;28;20033;-70
2021/09/17 04:44:41;;;;;;;17.05;10.07;;;12.00;99.90;;;;;;5033910;28;20144;-70
2021/09/17 04:47:08;;;;;;;14.20;10.55;;;12.00;99.90;;;;;;5043099;28;20037;-70
2021/09/17 04:49:36;;;;;;;13.82;10.15;;;11.90;99.90;;;;;;5026775;28;20052;-70
2021/09/17 04:52:03;;;;;;;15.95;10.35;;;11.90;99.90;;;;;;5034740;28;20058;-70
2021/09/17 04:54:30;;;;;;;16.65;10.68;;;11.80;99.90;;;;;;5013704;28;20061;-70
2021/09/17 04:56:58;;;;;;;15.25;10.85;;;11.80;99.90;;;;;;5022048;28;20051;-70
2021/09/17 04:59:25;;;;;;;15.07;10.05;;;11.80;99.90;;;;;;5036045;28;20052;-70
2021/09/17 05:01:52;;;;;;;13.32;9.80;;;11.70;99.90;;;;;;5044257;28;20373;-70
2021/09/17 05:04:20;;;;;;;16.45;10.25;;;11.70;99.90;;;;;;5046063;28;20137;-70
2021/09/17 05:06:47;;;;;;;16.33;10.63;;;11.70;99.90;;;;;;5030974;28;20123;-69
2021/09/17 05:09:14;;;;;;;15.05;10.02;;;11.70;99.90;;;;;;5044855;28;20081;-70
2021/09/17 05:11:42;;;;;;;14.27;10.13;;;11.70;99.90;;;;;;5042166;28;20048;-69
2021/09/17 05:14:09;;;;;;;16.00;11.57;;;11.70;99.90;;;;;;5032030;28;20050;-69
2021/09/17 05:16:37;;;;;;;15.88;10.95;;;11.70;99.90;;;;;;5033765;28;20053;-70
2021/09/17 05:19:04;;;;;;;17.40;11.10;;;11.80;99.90;;;;;;5042352;28;20048;-70
2021/09/17 05:21:32;;;;;;;15.65;11.05;;;11.90;99.90;;;;;;5031280;28;20126;-69
2021/09/17 05:23:59;;;;;;;17.73;11.68;;;11.90;99.90;;;;;;5031091;28;20046;-70
2021/09/17 05:26:26;;;;;;;15.70;9.80;;;12.00;99.90;;;;;;5035323;28;20411;-70
2021/09/17 05:28:53;;;;;;;16.23;10.48;;;12.10;99.90;;;;;;5031876;28;20100;-70
2021/09/17 05:31:21;;;;;;;15.40;10.20;;;12.10;99.90;;;;;;5034521;28;20048;-70
2021/09/17 05:33:48;;;;;;;16.23;11.25;;;12.20;99.90;;;;;;5034484;28;20060;-69
2021/09/17 05:36:16;;;;;;;15.57;10.40;;;12.20;99.90;;;;;;5031143;28;20132;-69
2021/09/17 05:38:43;;;;;;;15.02;10.02;;;12.20;99.90;;;;;;5042547;28;20037;-69
2021/09/17 05:41:10;;;;;;;15.98;10.45;;;12.30;99.90;;;;;;5037479;28;20064;-70
2021/09/17 05:43:37;;;;;;;17.75;10.65;;;12.40;99.90;;;;;;5038152;28;20521;-69
2021/09/17 05:46:05;;;;;;;15.20;11.05;;;12.50;99.90;;;;;;5028181;28;20496;-70
2021/09/17 05:48:32;;;;;;;19.23;12.25;;;12.60;99.90;;;;;;5038063;28;20059;-70
2021/09/17 05:50:59;;;;;;;20.98;10.75;;;12.70;99.90;;;;;;5031559;28;20526;-70
2021/09/17 05:53:26;;;;;;;19.23;11.38;;;12.80;99.90;;;;;;5023286;28;20148;-70
2021/09/17 05:55:54;;;;;;;15.43;10.35;;;12.80;99.90;;;;;;5024626;28;20465;-70
2021/09/17 05:58:21;;;;;;;19.45;11.23;;;13.00;99.90;;;;;;5037592;28;20064;-70
2021/09/17 06:00:48;;;;;;;18.73;10.90;;;13.10;99.90;;;;;;5036730;28;20065;-70
2021/09/17 06:03:16;;;;;;;19.52;11.68;;;13.20;99.90;;;;;;5024169;28;20053;-70
2021/09/17 06:05:43;;;;;;;16.05;10.45;;;13.30;99.90;;;;;;5029144;28;20041;-70
2021/09/17 06:08:11;;;;;;;15.80;9.75;;;13.40;99.90;;;;;;5031750;28;20060;-69
2021/09/17 06:10:38;;;;;;;16.15;10.60;;;13.50;99.90;;;;;;5041236;28;20037;-69
2021/09/17 06:13:05;;;;;;;15.98;10.10;;;13.60;99.90;;;;;;5030723;28;20056;-69
2021/09/17 06:15:33;;;;;;;15.23;8.77;;;13.70;99.90;;;;;;5033222;28;20048;-69
2021/09/17 06:18:00;;;;;;;22.25;13.85;;;13.80;99.90;;;;;;5035176;28;20476;-69
2021/09/17 06:20:27;;;;;;;16.23;12.25;;;13.80;99.90;;;;;;5042207;28;20045;-69
2021/09/17 06:22:55;;;;;;;21.10;13.70;;;13.90;99.90;;;;;;5040006;28;20486;-69
2021/09/17 06:25:23;;;;;;;20.10;14.43;;;13.90;99.90;;;;;;5044248;28;20124;-69
2021/09/17 06:27:51;;;;;;;26.67;18.77;;;13.90;99.90;;;;;;5036452;28;20048;-69
2021/09/17 06:30:19;;;;;;;20.88;13.48;;;13.90;99.90;;;;;;5016639;28;20231;-69
2021/09/17 06:32:47;;;;;;;19.73;12.95;;;13.90;99.90;;;;;;5030281;28;20068;-69
2021/09/17 06:35:14;;;;;;;16.48;12.43;;;14.00;99.90;;;;;;5032604;28;20057;-69
2021/09/17 06:37:53;;;;;;;22.30;15.02;;;14.10;99.90;;;;;;5029140;28;20053;-69
2021/09/17 06:40:23;;;;;;;26.05;17.83;;;14.20;99.90;;;;;;5029787;28;20041;-69
2021/09/17 06:42:50;;;;;;;22.08;15.45;;;14.30;99.90;;;;;;5026858;28;20069;-68
2021/09/17 06:45:18;;;;;;;18.25;13.75;;;14.20;99.90;;;;;;5007105;28;20046;-68
2021/09/17 06:47:49;;;;;;;24.38;15.80;;;14.30;99.90;;;;;;5033111;28;20041;-68
2021/09/17 06:50:18;;;;;;;21.73;15.98;;;14.30;99.90;;;;;;5040197;28;20422;-68
2021/09/17 06:52:50;;;;;;;24.70;15.48;;;14.30;99.90;;;;;;5060321;28;20050;-68
2021/09/17 06:55:18;;;;;;;;;;;14.40;99.90;;;;;;5008766;28;20148;-68
2021/09/17 06:57:53;;;;;;;25.65;17.73;;;14.50;99.90;;;;;;5013188;28;19927;-68
2021/09/17 07:00:22;;;;;;;27.10;15.68;;;14.50;99.90;;;;;;5031634;28;20072;-69
2021/09/17 07:02:50;;;;;;;26.27;16.80;;;14.70;99.90;;;;;;5024992;28;20116;-68
2021/09/17 07:05:20;;;;;;;24.88;18.45;;;14.90;99.90;;;;;;5028417;28;20049;-68
2021/09/17 07:07:48;;;;;;;24.95;18.75;;;15.20;99.90;;;;;;5015748;28;20049;-68
2021/09/17 07:10:19;;;;;;;25.00;17.85;;;15.20;99.90;;;;;;5014359;28;20080;-68
2021/09/17 07:12:46;;;;;;;24.70;16.87;;;15.40;99.90;;;;;;5036796;28;20055;-69
2021/09/17 07:15:14;;;;;;;22.65;17.38;;;15.40;99.90;;;;;;5034580;28;20045;-69
2021/09/17 07:17:42;;;;;;;25.25;18.42;;;15.60;99.90;;;;;;5036239;28;20042;-69
2021/09/17 07:20:10;;;;;;;20.92;16.05;;;15.70;99.90;;;;;;5043833;28;20033;-69
2021/09/17 07:22:37;;;;;;;26.20;17.42;;;15.80;99.90;;;;;;5024145;28;20044;-69
2021/09/17 07:25:06;;;;;;;23.55;17.88;;;15.90;99.90;;;;;;5044252;28;20543;-68
2021/09/17 07:27:33;;;;;;;26.33;17.77;;;15.90;99.90;;;;;;5018899;28;20046;-68
2021/09/17 07:30:01;;;;;;;21.75;15.93;;;15.70;99.90;;;;;;5033098;28;20450;-68
2021/09/17 07:32:28;;;;;;;23.77;17.50;;;15.80;99.90;;;;;;5012289;28;20100;-69
2021/09/17 07:34:55;;;;;;;21.77;16.75;;;15.90;99.90;;;;;;5027246;28;20042;-68
2021/09/17 07:37:23;;;;;;;22.63;15.73;;;16.00;99.90;;;;;;5026259;28;20049;-68
2021/09/17 07:39:51;;;;;;;22.38;17.00;;;16.20;99.90;;;;;;5031130;28;20037;-68
2021/09/17 07:42:18;;;;;;;22.33;16.13;;;16.40;99.90;;;;;;5023775;28;20042;-68
2021/09/17 07:44:45;;;;;;;21.08;16.85;;;16.30;99.90;;;;;;5031475;28;20396;-68
2021/09/17 07:47:13;;;;;;;19.17;15.75;;;16.40;99.90;;;;;;5030914;28;20053;-68
2021/09/17 07:49:40;;;;;;;22.60;17.38;;;16.50;99.90;;;;;;5028253;28;20128;-68
2021/09/17 07:52:08;;;;;;;18.10;13.52;;;16.50;99.90;;;;;;5034244;28;20471;-69
2021/09/17 07:54:35;;;;;;;18.30;14.68;;;16.50;99.90;;;;;;5023126;28;20519;-69
2021/09/17 07:57:03;;;;;;;21.80;15.48;;;16.70;99.90;;;;;;5026858;28;20033;-68
2021/09/17 07:59:30;;;;;;;20.10;14.77;;;16.80;99.90;;;;;;5041942;28;20059;-68
2021/09/17 08:01:58;;;;;;;18.17;14.18;;;16.90;99.90;;;;;;5012610;28;20045;-68
2021/09/17 08:04:25;;;;;;;17.95;14.85;;;17.10;99.90;;;;;;5041755;28;20060;-68
2021/09/17 08:06:53;;;;;;;17.60;14.35;;;17.30;99.90;;;;;;5040102;28;20131;-68
2021/09/17 08:09:20;;;;;;;17.25;13.00;;;17.30;99.90;;;;;;5031344;28;20041;-68
2021/09/17 08:11:47;;;;;;;20.23;14.27;;;17.50;99.90;;;;;;5042176;28;20045;-69
2021/09/17 08:14:14;;;;;;;23.67;14.27;;;17.70;99.90;;;;;;5045522;28;20049;-69
2021/09/17 08:16:43;;;;;;;17.63;11.77;;;17.80;99.90;;;;;;5033132;28;20055;-68
2021/09/17 08:19:11;;;;;;;17.75;14.10;;;17.90;99.90;;;;;;5023236;28;20125;-69
2021/09/17 08:21:41;;;;;;;16.38;13.10;;;18.00;99.90;;;;;;5045455;28;20036;-68
2021/09/17 08:24:16;;;;;;;17.40;14.32;;;18.00;99.90;;;;;;5078789;28;20151;-68
2021/09/17 08:26:51;;;;;;;15.02;12.70;;;18.10;99.90;;;;;;5030542;28;20044;-68
2021/09/17 08:29:19;;;;;;;17.60;14.07;;;18.10;99.90;;;;;;5034939;28;20141;-69
2021/09/17 08:32:01;;;;;;;;;;;18.20;99.90;;;;;;5020788;28;20510;-69
2021/09/17 08:34:49;;;;;;;16.60;12.63;;;18.20;99.90;;;;;;5033931;28;20025;-69
2021/09/17 08:37:36;;;;;;;16.85;13.18;;;18.40;99.90;;;;;;5031562;28;20071;-69
2021/09/17 08:40:25;;;;;;;19.55;14.68;;;18.50;99.90;;;;;;5015596;28;20128;-69
2021/09/17 08:42:53;;;;;;;16.85;13.10;;;18.20;99.90;;;;;;5037791;28;20037;-69
2021/09/17 08:45:22;;;;;;;19.02;14.38;;;18.40;99.90;;;;;;5043953;28;20103;-69
2021/09/17 08:47:49;;;;;;;17.77;13.55;;;18.60;99.90;;;;;;5028675;28;20049;-69
2021/09/17 08:50:18;;;;;;;18.35;12.90;;;18.90;99.90;;;;;;5024054;28;20056;-68
2021/09/17 08:52:47;;;;;;;17.63;12.25;;;18.90;99.90;;;;;;5015025;28;20045;-69
2021/09/17 08:55:15;;;;;;;15.85;12.50;;;18.80;99.90;;;;;;5021588;28;20050;-69
2021/09/17 08:57:44;;;;;;;13.57;11.50;;;19.00;99.90;;;;;;5039905;28;20444;-69
2021/09/17 09:00:26;;;;;;;18.02;12.60;;;19.00;99.90;;;;;;5021154;28;20041;-69
2021/09/17 09:02:56;;;;;;;19.63;11.75;;;19.20;99.90;;;;;;5035487;28;20040;-69
2021/09/17 09:05:27;;;;;;;15.07;11.80;;;19.50;99.90;;;;;;5016189;28;20084;-69
2021/09/17 09:07:55;;;;;;;13.97;10.70;;;19.50;99.90;;;;;;5035101;28;20044;-69
2021/09/17 09:10:22;;;;;;;14.43;11.68;;;19.60;99.90;;;;;;5031659;28;20307;-69
2021/09/17 09:12:58;;;;;;;14.82;10.77;;;19.50;99.90;;;;;;5040418;28;20128;-69
2021/09/17 09:15:30;;;;;;;15.73;13.05;;;19.60;99.90;;;;;;5033950;28;20056;-69
2021/09/17 09:18:01;;;;;;;15.43;11.07;;;19.70;99.90;;;;;;5040492;28;20156;-69
2021/09/17 09:20:35;;;;;;;10.97;8.30;;;19.70;99.90;;;;;;5040360;28;20045;-69
2021/09/17 09:23:07;;;;;;;13.77;10.13;;;19.80;99.90;;;;;;5030179;28;20048;-69
2021/09/17 09:25:55;;;;;;;13.75;8.75;;;19.70;99.90;;;;;;5038909;28;20051;-69
2021/09/17 09:28:26;;;;;;;11.48;8.52;;;19.80;99.90;;;;;;5031872;28;20128;-69
2021/09/17 09:30:55;;;;;;;14.50;8.55;;;20.10;99.90;;;;;;5039195;28;20072;-69
2021/09/17 09:33:40;;;;;;;12.02;8.18;;;20.00;99.90;;;;;;5040860;28;20064;-69
2021/09/17 09:36:19;;;;;;;11.48;8.23;;;20.20;99.90;;;;;;5029585;28;20492;-69
2021/09/17 09:38:55;;;;;;;9.80;6.68;;;20.50;99.90;;;;;;5023816;28;20046;-69
2021/09/17 09:41:29;;;;;;;11.07;8.07;;;20.40;99.90;;;;;;5030765;28;20048;-69
2021/09/17 09:44:02;;;;;;;9.98;6.80;;;20.20;99.90;;;;;;5033117;28;20068;-70
2021/09/17 09:46:41;;;;;;;6.30;3.67;;;20.00;99.90;;;;;;5033457;28;20103;-69
2021/09/17 09:49:22;;;;;;;7.45;3.83;;;20.10;99.90;;;;;;5015693;28;20052;-69
2021/09/17 09:51:54;;;;;;;7.78;3.78;;;20.20;99.90;;;;;;5032063;28;20065;-69
2021/09/17 09:54:23;;;;;;;9.82;4.72;;;20.20;99.90;;;;;;5022112;28;20500;-70
2021/09/17 09:56:55;;;;;;;6.05;3.80;;;20.00;99.90;;;;;;5022596;28;20045;-69
2021/09/17 09:59:26;;;;;;;;;;;19.90;99.90;;;;;;5037527;28;20260;-70
2021/09/17 10:02:03;;;;;;;6.68;3.10;;;19.90;99.90;;;;;;5034529;28;20397;-70
2021/09/17 10:04:33;;;;;;;6.88;5.45;;;19.70;99.90;;;;;;5040034;28;20068;-70
2021/09/17 10:07:07;;;;;;;8.07;5.00;;;19.50;99.90;;;;;;5067098;28;20103;-70
2021/09/17 10:09:36;;;;;;;6.85;4.25;;;19.60;99.90;;;;;;5033870;28;20119;-70
2021/09/17 10:12:09;;;;;;;7.50;5.80;;;19.70;99.90;;;;;;5028836;28;20380;-70
2021/09/17 10:14:37;;;;;;;7.47;5.15;;;19.70;99.90;;;;;;5013609;28;20060;-70
2021/09/17 10:17:24;;;;;;;6.75;4.40;;;19.50;99.90;;;;;;5024865;28;20056;-70
2021/09/17 10:19:53;;;;;;;6.53;4.75;;;19.90;99.90;;;;;;5022357;28;20065;-70
2021/09/17 10:22:39;;;;;;;9.00;5.65;;;20.30;99.90;;;;;;5019309;28;20468;-68
2021/09/17 10:25:13;;;;;;;9.15;5.45;;;20.90;99.90;;;;;;5028645;28;20048;-68
2021/09/17 10:27:44;;;;;;;7.75;5.95;;;21.50;99.90;;;;;;5037174;28;20124;-69
2021/09/17 10:30:15;;;;;;;;;;;21.60;99.90;;;;;;5018088;28;20134;-68
2021/09/17 10:32:49;;;;;;;6.13;4.57;;;21.50;99.90;;;;;;5030621;28;20434;-68
2021/09/17 10:35:31;;;;;;;8.90;4.60;;;21.20;99.90;;;;;;5034391;28;20150;-68
2021/09/17 10:38:16;;;;;;;13.68;5.78;;;21.00;99.90;;;;;;5033848;28;20042;-68
2021/09/17 10:40:46;;;;;;;6.95;4.97;;;20.70;99.90;;;;;;5034926;28;20394;-68
2021/09/17 10:43:16;;;;;;;8.65;5.80;;;20.90;99.90;;;;;;5024388;28;20419;-69
2021/09/17 10:46:05;;;;;;;8.95;5.80;;;21.10;99.90;;;;;;5039141;28;20114;-68
2021/09/17 10:48:42;;;;;;;8.40;5.72;;;21.30;99.90;;;;;;5038935;28;20406;-68
2021/09/17 10:51:25;;;;;;;9.25;5.00;;;21.40;99.90;;;;;;5030172;28;20141;-69
2021/09/17 10:54:12;;;;;;;7.10;4.72;;;21.40;99.90;;;;;;5042076;28;20136;-68
2021/09/17 10:56:49;;;;;;;8.80;5.78;;;21.70;99.90;;;;;;5020888;28;20092;-68
2021/09/17 10:59:28;;;;;;;7.03;5.03;;;21.60;99.90;;;;;;5030410;28;20068;-68
2021/09/17 11:02:00;;;;;;;7.72;4.75;;;21.60;99.90;;;;;;5034802;28;20046;-69
2021/09/17 11:04:31;;;;;;;6.40;4.82;;;21.50;99.90;;;;;;5046037;28;20060;-69
2021/09/17 11:07:21;;;;;;;9.13;4.15;;;21.50;99.90;;;;;;5046997;28;20049;-69
2021/09/17 11:09:56;;;;;;;6.70;3.72;;;21.60;99.90;;;;;;5023002;28;20412;-69
2021/09/17 11:12:27;;;;;;;6.53;3.83;;;21.70;99.90;;;;;;5032820;28;20053;-69
2021/09/17 11:15:06;;;;;;;4.47;3.17;;;21.60;99.90;;;;;;5035493;28;20048;-70
2021/09/17 11:17:37;;;;;;;6.22;4.40;;;21.40;99.90;;;;;;5031172;28;20053;-69
2021/09/17 11:20:11;;;;;;;8.35;5.28;;;21.10;99.90;;;;;;5022207;28;20044;-69
2021/09/17 11:22:59;;;;;;;6.40;4.20;;;20.90;99.90;;;;;;5033771;28;20068;-69
2021/09/17 11:25:35;;;;;;;7.25;4.15;;;20.80;99.90;;;;;;5039628;28;20078;-69
2021/09/17 11:28:06;;;;;;;6.28;4.03;;;20.70;99.90;;;;;;5037500;28;20141;-70
2021/09/17 11:30:35;;;;;;;7.15;4.10;;;20.70;99.90;;;;;;5033597;28;20076;-70
2021/09/17 11:33:16;;;;;;;5.63;4.13;;;20.50;99.90;;;;;;5036229;28;20068;-69
2021/09/17 11:35:44;;;;;;;5.78;3.50;;;20.50;99.90;;;;;;5041958;28;20094;-69
2021/09/17 11:38:11;;;;;;;5.32;3.60;;;20.50;99.90;;;;;;5039104;28;20045;-69
2021/09/17 11:40:50;;;;;;;6.55;4.22;;;20.50;99.90;;;;;;5042115;28;20152;-69
2021/09/17 11:43:17;;;;;;;5.10;3.03;;;20.40;99.90;;;;;;5044229;28;20128;-69
2021/09/17 11:45:51;;;;;;;7.50;3.90;;;20.30;99.90;;;;;;5028280;28;20223;-70
2021/09/17 11:48:24;;;;;;;6.70;4.20;;;20.30;99.90;;;;;;5011497;28;20128;-70
2021/09/17 11:50:54;;;;;;;5.45;4.03;;;20.20;99.90;;;;;;5039828;28;20050;-69
2021/09/17 11:53:22;;;;;;;7.45;4.53;;;20.20;99.90;;;;;;5030866;28;20045;-69
2021/09/17 11:55:50;;;;;;;7.30;4.65;;;19.90;99.90;;;;;;5032417;28;20057;-69
2021/09/17 11:58:17;;;;;;;6.55;3.78;;;19.90;99.90;;;;;;5040164;28;20529;-69
2021/09/17 12:00:46;;;;;;;4.70;3.35;;;19.90;99.90;;;;;;5040341;28;20047;-69
2021/09/17 12:03:13;;;;;;;6.00;3.38;;;20.20;99.90;;;;;;5029691;28;20069;-70
2021/09/17 12:05:42;;;;;;;5.78;3.55;;;20.40;99.90;;;;;;5049313;28;20060;-69
2021/09/17 12:08:11;;;;;;;5.88;3.20;;;20.80;99.90;;;;;;5027275;28;20057;-69
2021/09/17 12:10:44;;;;;;;6.07;3.35;;;21.00;99.90;;;;;;5028935;28;20470;-69
2021/09/17 12:13:13;;;;;;;5.28;3.10;;;21.40;99.90;;;;;;5025249;28;20045;-69
2021/09/17 12:15:43;;;;;;;4.28;2.70;;;21.80;99.90;;;;;;5047337;28;20049;-69
2021/09/17 12:18:20;;;;;;;4.50;3.25;;;22.30;99.90;;;;;;5026096;28;20041;-69
2021/09/17 12:20:49;;;;;;;5.20;3.67;;;22.80;99.90;;;;;;5035341;28;20605;-69
2021/09/17 12:23:32;;;;;;;7.07;3.05;;;23.30;99.90;;;;;;5037064;28;20055;-69
2021/09/17 12:26:25;;;;;;;6.47;3.15;;;23.80;99.90;;;;;;5049514;28;20456;-69
2021/09/17 12:28:53;;;;;;;5.15;2.78;;;23.90;99.90;;;;;;5049040;28;20375;-68
2021/09/17 12:31:35;;;;;;;4.78;2.53;;;23.70;99.90;;;;;;5004524;28;20064;-69
2021/09/17 12:34:10;;;;;;;3.30;2.10;;;23.70;99.90;;;;;;5040385;28;20453;-69
2021/09/17 12:36:38;;;;;;;3.28;1.77;;;24.70;99.90;;;;;;5042352;28;20041;-69
2021/09/17 12:39:08;;;;;;;4.38;2.35;;;25.10;99.90;;;;;;5017284;28;20528;-69
2021/09/17 12:41:37;;;;;;;3.30;2.28;;;25.90;99.90;;;;;;5038805;28;20076;-69
2021/09/17 12:44:13;;;;;;;4.85;2.22;;;26.10;99.90;;;;;;5040869;28;20068;-69
2021/09/17 12:46:46;;;;;;;4.15;2.00;;;26.90;99.90;;;;;;5035316;28;20049;-69
2021/09/17 12:49:15;;;;;;;5.47;1.90;;;27.70;99.90;;;;;;5037683;28;20048;-69